createdAt,value
2023-01-11T00:03:32.281Z,99476.03
2023-01-11T00:08:39.963Z,99474.64
2023-01-11T00:13:47.571Z,99474.76
2023-01-11T00:18:57.458Z,99469.04
2023-01-11T00:24:06.574Z,99463.41
2023-01-11T00:29:14.249Z,99468.44
2023-01-11T00:34:22.539Z,99475.36
2023-01-11T00:39:32.279Z,99481.02
2023-01-11T00:44:57.526Z,99488.59
2023-01-11T00:50:05.603Z,99494.20
2023-01-11T00:55:13.539Z,99496.20
2023-01-11T01:00:22.857Z,99495.80
2023-01-11T01:05:31.122Z,99495.88
2023-01-11T01:10:38.665Z,99498.15
2023-01-11T01:15:46.703Z,99496.91
2023-01-11T01:20:55.713Z,99502.40
2023-01-11T01:26:06.308Z,99499.10
2023-01-11T01:31:13.727Z,99506.70
2023-01-11T01:36:21.330Z,99499.31
2023-01-11T01:41:29.840Z,99494.50
2023-01-11T01:46:38.999Z,99499.16
2023-01-11T01:51:50.038Z,99502.08
2023-01-11T01:57:01.590Z,99500.70
2023-01-11T02:02:10.111Z,99498.54
2023-01-11T02:07:22.425Z,99505.02
2023-01-11T02:12:33.644Z,99504.00
2023-01-11T02:17:41.198Z,99497.80
2023-01-11T02:23:21.885Z,99497.00
2023-01-11T02:28:34.948Z,99501.05
2023-01-11T02:33:52.265Z,99499.90
2023-01-11T02:39:11.285Z,99498.98
2023-01-11T02:44:45.242Z,99496.75
2023-01-11T02:49:59.279Z,99495.16
2023-01-11T02:55:11.942Z,99494.52
2023-01-11T03:03:53.996Z,99503.70
2023-01-11T03:09:21.407Z,99497.93
2023-01-11T03:14:45.065Z,99495.04
2023-01-11T03:19:56.586Z,99493.94
2023-01-11T03:25:15.275Z,99494.51
2023-01-11T03:30:29.891Z,99500.23
2023-01-11T03:35:44.315Z,99499.21
2023-01-11T03:40:59.115Z,99493.73
2023-01-11T03:59:58.350Z,99494.37
2023-01-11T04:05:10.970Z,99488.95
2023-01-11T04:10:19.704Z,99484.73
2023-01-11T04:15:30.652Z,99480.20
2023-01-11T04:20:40.511Z,99477.52
2023-01-11T04:25:48.143Z,99479.11
2023-01-11T04:31:07.135Z,99469.78
2023-01-11T04:36:15.462Z,99466.97
2023-01-11T04:41:40.058Z,99473.64
2023-01-11T04:46:47.457Z,99472.91
2023-01-11T04:51:55.786Z,99463.60
2023-01-11T04:57:03.614Z,99466.55
2023-01-11T05:02:11.000Z,99467.94
2023-01-11T05:07:18.468Z,99468.59
2023-01-11T05:12:26.429Z,99470.18
2023-01-11T05:17:34.282Z,99469.61
2023-01-11T05:22:41.856Z,99472.20
2023-01-11T05:27:49.478Z,99472.34
2023-01-11T05:32:58.996Z,99470.25
2023-01-11T05:38:06.737Z,99465.32
2023-01-11T05:43:14.897Z,99464.67
2023-01-11T05:48:25.268Z,99468.73
2023-01-11T05:53:33.149Z,99464.86
2023-01-11T05:58:45.044Z,99461.98
2023-01-11T06:03:52.772Z,99459.30
2023-01-11T06:09:00.739Z,99445.23
2023-01-11T06:14:09.217Z,99445.12
2023-01-11T06:19:17.300Z,99446.68
2023-01-11T06:24:26.425Z,99446.75
2023-01-11T06:29:33.993Z,99446.86
2023-01-11T06:34:41.319Z,99441.18
2023-01-11T06:39:49.514Z,99443.74
2023-01-11T06:44:57.935Z,99443.87
2023-01-11T06:50:10.939Z,99448.42
2023-01-11T06:55:18.733Z,99452.21
2023-01-11T07:00:28.605Z,99450.48
2023-01-11T07:05:37.392Z,99452.59
2023-01-11T07:10:45.330Z,99451.65
2023-01-11T07:15:55.240Z,99444.44
2023-01-11T07:21:03.298Z,99443.19
2023-01-11T07:26:10.674Z,99437.89
2023-01-11T07:31:18.112Z,99438.34
2023-01-11T07:36:27.572Z,99438.89
2023-01-11T07:41:53.123Z,99443.45
2023-01-11T07:47:01.117Z,99441.47
2023-01-11T07:52:08.708Z,99443.43
2023-01-11T07:57:16.054Z,99436.45
2023-01-11T08:02:24.497Z,99434.28
2023-01-11T08:07:32.367Z,99423.39
2023-01-11T08:13:02.905Z,99419.29
2023-01-11T08:18:11.755Z,99414.68
2023-01-11T08:23:19.783Z,99402.60
2023-01-11T08:28:27.690Z,99400.70
2023-01-11T08:33:35.121Z,99400.61
2023-01-11T08:38:42.947Z,99408.33
2023-01-11T08:43:51.132Z,99413.23
2023-01-11T08:49:01.055Z,99417.27
2023-01-11T08:54:12.289Z,99423.41
2023-01-11T08:59:22.475Z,99428.42
2023-01-11T09:04:31.564Z,99433.29
2023-01-11T09:09:39.737Z,99418.17
2023-01-11T09:14:47.134Z,99411.43
2023-01-11T09:19:54.968Z,99407.52
2023-01-11T09:25:04.553Z,99405.08
2023-01-11T09:30:15.301Z,99406.23
2023-01-11T09:35:23.060Z,99399.62
2023-01-11T09:40:42.377Z,99393.39
2023-01-11T09:45:52.333Z,99386.61
2023-01-11T09:51:02.600Z,99381.27
2023-01-11T09:56:16.841Z,99373.09
2023-01-11T10:01:34.246Z,99375.38
2023-01-11T10:06:52.497Z,99368.36
2023-01-11T10:18:43.105Z,99356.34
2023-01-11T10:23:26.130Z,99343.02
2023-01-11T10:28:49.886Z,99332.27
2023-01-11T10:34:30.707Z,99315.67
2023-01-11T10:40:06.561Z,99312.53
2023-01-11T10:45:22.442Z,99308.63
2023-01-11T10:50:38.925Z,99309.50
2023-01-11T10:55:56.256Z,99319.72
2023-01-11T11:03:12.591Z,99318.50
2023-01-11T11:08:28.004Z,99322.98
2023-01-11T11:13:48.195Z,99316.25
2023-01-11T11:18:58.761Z,99311.30
2023-01-11T11:24:15.975Z,99297.17
2023-01-11T11:29:30.959Z,99290.45
2023-01-11T11:34:38.108Z,99288.59
2023-01-11T11:39:43.691Z,99281.84
2023-01-11T11:45:18.207Z,99273.14
2023-01-11T11:50:44.729Z,99266.42
2023-01-11T11:55:54.855Z,99253.70
2023-01-11T12:01:02.739Z,99249.61
2023-01-11T12:06:10.177Z,99250.98
2023-01-11T12:11:25.108Z,99249.25
2023-01-11T12:16:36.860Z,99247.48
2023-01-11T12:21:44.448Z,99236.86
2023-01-11T12:27:06.614Z,99230.82
2023-01-11T12:32:32.490Z,99231.88
2023-01-11T12:37:55.938Z,99229.36
2023-01-11T12:43:25.751Z,99221.45
2023-01-11T12:48:50.128Z,99215.66
2023-01-11T12:54:20.108Z,99202.95
2023-01-11T12:59:44.531Z,99193.87
2023-01-11T13:05:05.424Z,99189.02
2023-01-11T13:10:25.646Z,99181.33
2023-01-11T13:15:44.045Z,99181.02
2023-01-11T13:21:02.491Z,99179.98
2023-01-11T13:26:22.127Z,99179.41
2023-01-11T13:31:30.992Z,99171.17
2023-01-11T13:36:45.819Z,99169.77
2023-01-11T13:41:57.281Z,99171.70
2023-01-11T13:47:10.530Z,99175.65
2023-01-11T13:52:20.636Z,99175.26
2023-01-11T13:57:36.529Z,99176.20
2023-01-11T14:02:49.614Z,99174.96
2023-01-11T14:08:16.469Z,99168.88
2023-01-11T14:14:04.068Z,99156.88
2023-01-11T14:19:21.812Z,99149.81
2023-01-11T14:24:33.932Z,99148.70
2023-01-11T14:30:06.959Z,99150.42
2023-01-11T14:35:42.803Z,99153.20
2023-01-11T14:41:04.471Z,99148.96
2023-01-11T14:46:42.123Z,99145.54
2023-01-11T14:51:58.093Z,99143.05
2023-01-11T14:57:05.529Z,99142.42
2023-01-11T15:02:27.469Z,99133.84
2023-01-11T15:07:41.189Z,99128.13
2023-01-11T15:12:48.396Z,99126.19
2023-01-11T15:18:16.792Z,99124.80
2023-01-11T15:23:25.420Z,99120.29
2023-01-11T15:28:44.277Z,99109.52
2023-01-11T15:33:55.801Z,99104.54
2023-01-11T15:39:08.137Z,99105.59
2023-01-11T15:44:33.960Z,99099.53
2023-01-11T15:50:16.739Z,99096.25
2023-01-11T15:55:56.829Z,99089.45
2023-01-11T16:01:28.403Z,99081.77
2023-01-11T16:06:44.628Z,99077.65
2023-01-11T16:12:02.911Z,99076.39
2023-01-11T16:17:14.870Z,99073.41
2023-01-11T16:22:25.851Z,99072.08
2023-01-11T16:27:36.645Z,99064.52
2023-01-11T16:32:44.435Z,99064.79
2023-01-11T16:37:58.143Z,99069.71
2023-01-11T16:43:10.104Z,99065.27
2023-01-11T16:48:19.954Z,99054.29
2023-01-11T16:53:28.442Z,99052.02
2023-01-11T16:58:37.231Z,99046.21
2023-01-11T17:03:52.089Z,99050.02
2023-01-11T17:09:10.943Z,99051.24
2023-01-11T17:14:57.048Z,99053.01
2023-01-11T17:20:04.944Z,99058.27
2023-01-11T17:25:21.079Z,99057.76
2023-01-11T17:30:30.111Z,99054.71
2023-01-11T17:35:44.944Z,99042.20
2023-01-11T17:40:52.946Z,99044.20
2023-01-11T17:46:03.217Z,99048.23
2023-01-11T17:51:10.385Z,99051.83
2023-01-11T17:56:35.289Z,99051.30
2023-01-11T18:01:47.266Z,99045.06
2023-01-11T18:06:56.871Z,99037.76
2023-01-11T18:12:13.986Z,99035.53
2023-01-11T18:17:42.146Z,99032.77
2023-01-11T18:23:04.733Z,99034.23
2023-01-11T18:28:29.523Z,99022.17
2023-01-11T18:33:40.798Z,99014.73
2023-01-11T18:38:47.794Z,99019.21
2023-01-11T18:43:55.898Z,99028.10
2023-01-11T18:49:03.020Z,99028.83
2023-01-11T18:54:16.968Z,99026.94
2023-01-11T18:59:24.132Z,99034.98
2023-01-11T19:04:31.316Z,99043.78
2023-01-11T19:09:38.744Z,99051.92
2023-01-11T19:14:46.146Z,99057.94
2023-01-11T19:19:53.285Z,99050.79
2023-01-11T19:25:00.450Z,99051.77
2023-01-11T19:30:06.782Z,99054.33
2023-01-11T19:35:15.373Z,99050.21
2023-01-11T19:40:22.775Z,99058.11
2023-01-11T19:45:30.418Z,99057.95
2023-01-11T19:50:37.585Z,99058.30
2023-01-11T19:55:43.188Z,99064.02
2023-01-11T20:03:12.164Z,99057.55
2023-01-11T20:08:22.435Z,99059.38
2023-01-11T20:13:30.483Z,99061.30
2023-01-11T20:18:38.253Z,99059.46
2023-01-11T20:23:45.862Z,99060.92
2023-01-11T20:28:56.893Z,99063.52
2023-01-11T20:34:07.014Z,99066.65
2023-01-11T20:39:15.336Z,99065.65
2023-01-11T20:44:28.074Z,99062.45
2023-01-11T20:59:14.101Z,99053.97
2023-01-11T21:04:22.766Z,99049.73
2023-01-11T21:09:32.399Z,99053.23
2023-01-11T21:14:40.163Z,99056.77
2023-01-11T21:19:47.850Z,99056.52
2023-01-11T21:24:55.965Z,99054.04
2023-01-11T21:30:03.300Z,99054.95
2023-01-11T21:35:12.014Z,99055.67
2023-01-11T21:40:20.920Z,99056.49
2023-01-11T21:45:29.396Z,99046.80
2023-01-11T21:50:36.910Z,99051.55
2023-01-11T21:55:44.391Z,99067.27
2023-01-11T22:00:51.955Z,99073.02
2023-01-11T22:06:05.144Z,99078.70
2023-01-11T22:11:13.987Z,99089.40
2023-01-11T22:16:22.210Z,99101.75
2023-01-11T22:21:31.054Z,99106.54
2023-01-11T22:26:39.431Z,99108.41
2023-01-11T22:31:51.175Z,99100.64
2023-01-11T22:36:59.201Z,99102.85
2023-01-11T22:42:06.937Z,99108.55
2023-01-11T22:47:17.081Z,99107.69
2023-01-11T22:52:26.252Z,99099.93
2023-01-11T22:57:34.781Z,99088.42
2023-01-11T23:02:42.277Z,99087.88
2023-01-11T23:07:50.002Z,99083.70
2023-01-11T23:13:14.905Z,99089.08
2023-01-11T23:18:22.925Z,99091.00
2023-01-11T23:23:31.677Z,99091.55
2023-01-11T23:28:39.620Z,99096.41
2023-01-11T23:33:47.366Z,99106.98
2023-01-11T23:38:55.906Z,99109.69
2023-01-11T23:44:03.763Z,99109.33
2023-01-11T23:49:14.757Z,99109.97
2023-01-11T23:54:38.689Z,99123.62
2023-01-11T23:59:46.768Z,99135.09
